sensor_id;sensor_type;location;lat;lon;timestamp;pressure;altitude;pressure_sealevel;temperature;humidity
61740;BME280;47645;45.288;12.038;2023-12-07T00:02:37;1015.7352141304464;;;3.11875;100
61740;BME280;47645;45.288;12.038;2023-12-07T00:12:37;1015.70867043775;;;3.1494140625;100
61740;BME280;47645;45.288;12.038;2023-12-07T00:22:37;1015.6251293057618;;;3.20546875;100
61740;BME280;47645;45.288;12.038;2023-12-07T00:32:38;1015.5238038451347;;;3.2615234375;100
61740;BME280;47645;45.288;12.038;2023-12-07T00:42:38;1015.6385882247171;;;3.2716796875;100
61740;BME280;47645;45.288;12.038;2023-12-07T00:52:39;1015.7550411715619;;;3.2919921875;100
61740;BME280;47645;45.288;12.038;2023-12-07T01:02:39;1015.8682742180166;;;3.1748046875;100
61740;BME280;47645;45.288;12.038;2023-12-07T01:12:40;1015.8620874762506;;;3.1494140625;100
61740;BME280;47645;45.288;12.038;2023-12-07T01:22:40;1015.9371675570087;;;3.1798828125;100
61740;BME280;47645;45.288;12.038;2023-12-07T01:32:40;1016.1372942569049;;;3.021875;100
61740;BME280;47645;45.288;12.038;2023-12-07T01:42:41;1016.2777833420993;;;3.0830078125;100
61740;BME280;47645;45.288;12.038;2023-12-07T01:52:44;1016.2482626962484;;;3.006640625;100
61740;BME280;47645;45.288;12.038;2023-12-07T02:02:41;1016.2960079315313;;;3.006640625;100
61740;BME280;47645;45.288;12.038;2023-12-07T02:12:41;1016.52462426343;;;2.919921875;100
61740;BME280;47645;45.288;12.038;2023-12-07T02:22:45;1016.445064623707;;;2.8283203125;100
61740;BME280;47645;45.288;12.038;2023-12-07T02:32:44;1016.3738226770786;;;2.7263671875;100
61740;BME280;47645;45.288;12.038;2023-12-07T02:42:43;1016.2780683827401;;;2.6396484375;100
61740;BME280;47645;45.288;12.038;2023-12-07T02:52:43;1016.5047292931886;;;2.451171875;100
61740;BME280;47645;45.288;12.038;2023-12-07T03:02:43;1016.4420788897802;;;2.2779296875;100
61740;BME280;47645;45.288;12.038;2023-12-07T03:12:44;1016.4197147311783;;;2.1759765625;100
61740;BME280;47645;45.288;12.038;2023-12-07T03:22:45;1016.4220997155567;;;2.46640625;100
61740;BME280;47645;45.288;12.038;2023-12-07T03:32:44;1016.5324934611327;;;2.5173828125;100
61740;BME280;47645;45.288;12.038;2023-12-07T03:42:45;1016.5356289783832;;;2.553125;100
61740;BME280;47645;45.288;12.038;2023-12-07T03:52:45;1016.5237102294313;;;2.48671875;100
61740;BME280;47645;45.288;12.038;2023-12-07T04:02:45;1016.6741505315429;;;2.34921875;100
61740;BME280;47645;45.288;12.038;2023-12-07T04:12:46;1016.7975776264059;;;2.4001953125;100
61740;BME280;47645;45.288;12.038;2023-12-07T04:22:46;1016.9681112578468;;;2.359375;100
61740;BME280;47645;45.288;12.038;2023-12-07T04:32:47;1017.0831699302429;;;2.25234375;100
61740;BME280;47645;45.288;12.038;2023-12-07T04:42:47;1017.1205754228674;;;2.1658203125;100
61740;BME280;47645;45.288;12.038;2023-12-07T04:52:47;1017.1687441939517;;;1.926171875;100
61740;BME280;47645;45.288;12.038;2023-12-07T05:02:48;1017.1891738470681;;;2.0791015625;100
61740;BME280;47645;45.288;12.038;2023-12-07T05:12:48;1017.3381065310188;;;2.0537109375;100
61740;BME280;47645;45.288;12.038;2023-12-07T05:22:48;1017.4166418043147;;;1.819140625;100
61740;BME280;47645;45.288;12.038;2023-12-07T05:32:49;1017.4564605992069;;;1.9416015625;100
61740;BME280;47645;45.288;12.038;2023-12-07T05:42:49;1017.5842699193424;;;1.890625;100
61740;BME280;47645;45.288;12.038;2023-12-07T05:52:50;1017.6413917080978;;;1.7427734375;100
61740;BME280;47645;45.288;12.038;2023-12-07T06:02:50;1017.7343716019801;;;1.7681640625;100
61740;BME280;47645;45.288;12.038;2023-12-07T06:12:50;1017.828588522136;;;1.8751953125;100
61740;BME280;47645;45.288;12.038;2023-12-07T06:22:51;1017.8266698501648;;;1.8294921875;100
61740;BME280;47645;45.288;12.038;2023-12-07T06:32:51;1017.9297238429443;;;1.7173828125;100
61740;BME280;47645;45.288;12.038;2023-12-07T06:42:52;1017.984218130832;;;1.661328125;100
61740;BME280;47645;45.288;12.038;2023-12-07T06:52:52;1018.0540019597952;;;1.6509765625;100
61740;BME280;47645;45.288;12.038;2023-12-07T07:02:52;1018.2211226081339;;;1.6306640625;100
61740;BME280;47645;45.288;12.038;2023-12-07T07:12:53;1018.3709845003358;;;1.6154296875;100
61740;BME280;47645;45.288;12.038;2023-12-07T07:22:53;1018.5242735801243;;;1.6458984375;100
61740;BME280;47645;45.288;12.038;2023-12-07T07:32:53;1018.678440720092;;;1.6509765625;100
61740;BME280;47645;45.288;12.038;2023-12-07T07:42:54;1018.7164243799799;;;1.4369140625;100
61740;BME280;47645;45.288;12.038;2023-12-07T07:52:55;1018.7328888040739;;;1.4064453125;100
61740;BME280;47645;45.288;12.038;2023-12-07T08:02:55;1018.7554835582696;;;1.233203125;100
61740;BME280;47645;45.288;12.038;2023-12-07T08:12:55;1018.8621031078823;;;1.3453125;100
61740;BME280;47645;45.288;12.038;2023-12-07T08:22:55;1018.8218434324651;;;1.671484375;100
61740;BME280;47645;45.288;12.038;2023-12-07T08:32:56;1018.9834662112039;;;2.043359375;100
61740;BME280;47645;45.288;12.038;2023-12-07T08:42:56;1018.9551905521756;;;2.364453125;100
61740;BME280;47645;45.288;12.038;2023-12-07T08:52:57;1019.0278432247491;;;2.705859375;100
61740;BME280;47645;45.288;12.038;2023-12-07T09:02:57;1019.0703223787767;;;3.444921875;100
61740;BME280;47645;45.288;12.038;2023-12-07T09:12:57;1019.1178944707628;;;3.689453125;100
61740;BME280;47645;45.288;12.038;2023-12-07T09:22:58;1019.141618852768;;;4.6578125;100
61740;BME280;47645;45.288;12.038;2023-12-07T09:32:59;1019.1527815135242;;;5.218359375;100
61740;BME280;47645;45.288;12.038;2023-12-07T09:42:59;1019.2838801674063;;;5.9115234375;100
61740;BME280;47645;45.288;12.038;2023-12-07T09:52:59;1019.2488753178346;;;6.2630859375;100
61740;BME280;47645;45.288;12.038;2023-12-07T10:03:01;1019.13109546856;;;6.4314453125;100
61740;BME280;47645;45.288;12.038;2023-12-07T10:13:00;1019.1266172575457;;;6.8951171875;100
61740;BME280;47645;45.288;12.038;2023-12-07T10:23:02;1019.0663547025944;;;7.144921875;100
61740;BME280;47645;45.288;12.038;2023-12-07T10:33:04;1018.9539628628088;;;7.3486328125;100
61740;BME280;47645;45.288;12.038;2023-12-07T10:43:04;1018.8062218385411;;;8.0876953125;99.93475894219587
61740;BME280;47645;45.288;12.038;2023-12-07T10:53:09;1018.7883454820877;;;8.3169921875;97.70319478069534
61740;BME280;47645;45.288;12.038;2023-12-07T11:03:04;1018.73749921257;;;9.0763671875;94.58161368460327
61740;BME280;47645;45.288;12.038;2023-12-07T11:13:11;1018.7103139039887;;;9.1375;95.41046698780973
61740;BME280;47645;45.288;12.038;2023-12-07T11:23:04;1018.7951070384672;;;8.791015625;95.38180309229408
61740;BME280;47645;45.288;12.038;2023-12-07T11:33:06;1018.6917604186631;;;8.9693359375;93.52250485549823
61740;BME280;47645;45.288;12.038;2023-12-07T11:43:08;1018.7184003890476;;;9.3568359375;89.6141019614929
61740;BME280;47645;45.288;12.038;2023-12-07T11:53:07;1018.6506416678574;;;9.4484375;90.08847498053697
61740;BME280;47645;45.288;12.038;2023-12-07T12:03:08;1018.4502684484187;;;9.774609375;88.19457670781715
61740;BME280;47645;45.288;12.038;2023-12-07T12:13:10;1018.4741953301302;;;9.9173828125;89.23262699516721
61740;BME280;47645;45.288;12.038;2023-12-07T12:23:11;1018.4011295924488;;;10.1875;88.82271308218466
61740;BME280;47645;45.288;12.038;2023-12-07T12:33:08;1018.5057665971663;;;10.2537109375;88.79112688832137
61740;BME280;47645;45.288;12.038;2023-12-07T12:43:10;1018.636995552067;;;10.3302734375;87.26277204064314
61740;BME280;47645;45.288;12.038;2023-12-07T12:53:12;1018.584413931;;;10.41171875;87.25976841758613
61740;BME280;47645;45.288;12.038;2023-12-07T13:03:13;1018.4502733856814;;;10.3455078125;86.19033003052705
61740;BME280;47645;45.288;12.038;2023-12-07T13:13:11;1018.3057023045667;;;10.41171875;88.04549873243974
61740;BME280;47645;45.288;12.038;2023-12-07T13:23:12;1018.195051885892;;;10.065234375;91.9850192336467
61740;BME280;47645;45.288;12.038;2023-12-07T13:33:12;1018.130561872335;;;10.0396484375;91.59532730362682
61740;BME280;47645;45.288;12.038;2023-12-07T13:43:14;1018.1263793972411;;;9.6625;94.94391119583301
61740;BME280;47645;45.288;12.038;2023-12-07T13:53:16;1018.1792941688707;;;9.7134765625;96.20160012257365
61740;BME280;47645;45.288;12.038;2023-12-07T14:03:16;1018.2199482484247;;;9.4791015625;96.91640084096781
61740;BME280;47645;45.288;12.038;2023-12-07T14:13:15;1018.346482774002;;;9.4076171875;97.81837043658798
61740;BME280;47645;45.288;12.038;2023-12-07T14:23:16;1018.4799275460557;;;9.30078125;97.82848040014801
61740;BME280;47645;45.288;12.038;2023-12-07T14:33:19;1018.6766768052479;;;9.112109375;98.34485538070936
61740;BME280;47645;45.288;12.038;2023-12-07T14:43:18;1018.810410137632;;;8.8828125;100
61740;BME280;47645;45.288;12.038;2023-12-07T14:53:16;1018.961520557873;;;8.56171875;100
61740;BME280;47645;45.288;12.038;2023-12-07T15:03:19;1019.212242037391;;;8.2609375;100
61740;BME280;47645;45.288;12.038;2023-12-07T15:13:20;1019.385813471528;;;7.9755859375;100
61740;BME280;47645;45.288;12.038;2023-12-07T15:23:18;1019.5868476193606;;;7.715625;100
61740;BME280;47645;45.288;12.038;2023-12-07T15:33:19;1019.5786713387607;;;7.39453125;100
61740;BME280;47645;45.288;12.038;2023-12-07T15:43:19;1019.7271101053922;;;7.1041015625;100
61740;BME280;47645;45.288;12.038;2023-12-07T15:53:23;1019.6994816666669;;;6.625;100
61740;BME280;47645;45.288;12.038;2023-12-07T16:03:23;1019.613589329141;;;6.319140625;100
61740;BME280;47645;45.288;12.038;2023-12-07T16:13:20;1019.7442579973606;;;6.201953125;100
61740;BME280;47645;45.288;12.038;2023-12-07T16:23:23;1019.7210522024093;;;6.1765625;100
61740;BME280;47645;45.288;12.038;2023-12-07T16:33:25;1019.612962205152;;;6.29375;100
61740;BME280;47645;45.288;12.038;2023-12-07T16:43:23;1019.5591796101068;;;6.1154296875;100
61740;BME280;47645;45.288;12.038;2023-12-07T16:53:23;1019.4884003489136;;;5.8044921875;100
61740;BME280;47645;45.288;12.038;2023-12-07T17:03:30;1019.4112300021241;;;5.773828125;100
61740;BME280;47645;45.288;12.038;2023-12-07T17:13:27;1019.4347269789488;;;5.4375;100
61740;BME280;47645;45.288;12.038;2023-12-07T17:23:26;1019.5848967485977;;;5.28984375;100
61740;BME280;47645;45.288;12.038;2023-12-07T17:33:26;1019.5889753029556;;;5.1521484375;100
61740;BME280;47645;45.288;12.038;2023-12-07T17:43:26;1019.584979620995;;;4.994140625;100
61740;BME280;47645;45.288;12.038;2023-12-07T17:53:27;1019.679909111379;;;4.7546875;100
61740;BME280;47645;45.288;12.038;2023-12-07T18:03:26;1019.7474288786971;;;4.749609375;100
61740;BME280;47645;45.288;12.038;2023-12-07T18:13:28;1019.8456208962423;;;4.7341796875;100
61740;BME280;47645;45.288;12.038;2023-12-07T18:23:29;1019.9011151326578;;;4.5865234375;100
61740;BME280;47645;45.288;12.038;2023-12-07T18:33:27;1019.8459940936876;;;4.4234375;100
61740;BME280;47645;45.288;12.038;2023-12-07T18:43:30;1019.7759039445333;;;4.21953125;100
61740;BME280;47645;45.288;12.038;2023-12-07T18:53:29;1019.9893881257476;;;4.1685546875;100
61740;BME280;47645;45.288;12.038;2023-12-07T19:03:32;1020.2620632893896;;;3.7099609375;100
61740;BME280;47645;45.288;12.038;2023-12-07T19:13:30;1020.1738203846825;;;3.7455078125;100
61740;BME280;47645;45.288;12.038;2023-12-07T19:23:32;1020.177680908209;;;4.02578125;100
61740;BME280;47645;45.288;12.038;2023-12-07T19:33:33;1020.1781447531938;;;3.883203125;100
61740;BME280;47645;45.288;12.038;2023-12-07T19:43:34;1020.275876070066;;;3.8322265625;100
61740;BME280;47645;45.288;12.038;2023-12-07T19:53:33;1020.2148387478936;;;3.77109375;100
61740;BME280;47645;45.288;12.038;2023-12-07T20:03:38;1020.1726968337491;;;3.7353515625;100
61740;BME280;47645;45.288;12.038;2023-12-07T20:13:33;1020.1088838272144;;;3.3328125;100
61740;BME280;47645;45.288;12.038;2023-12-07T20:23:35;1020.3096010374767;;;3.2919921875;100
61740;BME280;47645;45.288;12.038;2023-12-07T20:33:34;1020.2917402675408;;;3.11875;100
61740;BME280;47645;45.288;12.038;2023-12-07T20:43:33;1020.2146913765081;;;3.45;100
61740;BME280;47645;45.288;12.038;2023-12-07T20:53:33;1020.3385004370222;;;3.113671875;100
61740;BME280;47645;45.288;12.038;2023-12-07T21:03:34;1020.3310569236717;;;3.3990234375;100
61740;BME280;47645;45.288;12.038;2023-12-07T21:13:34;1020.4537115683602;;;3.3888671875;100
61740;BME280;47645;45.288;12.038;2023-12-07T21:23:34;1020.432737117293;;;3.424609375;100
61740;BME280;47645;45.288;12.038;2023-12-07T21:33:36;1020.4552382226243;;;3.220703125;100
61740;BME280;47645;45.288;12.038;2023-12-07T21:43:35;1020.3831548117735;;;3.215625;100
61740;BME280;47645;45.288;12.038;2023-12-07T21:53:35;1020.274388475429;;;3.12890625;100
61740;BME280;47645;45.288;12.038;2023-12-07T22:03:36;1020.0402579286132;;;3.016796875;100
61740;BME280;47645;45.288;12.038;2023-12-07T22:13:36;1019.8328775009285;;;2.91484375;100
61740;BME280;47645;45.288;12.038;2023-12-07T22:23:37;1019.7592452966046;;;2.8537109375;100
61740;BME280;47645;45.288;12.038;2023-12-07T22:33:37;1019.6565784627055;;;2.7568359375;100
61740;BME280;47645;45.288;12.038;2023-12-07T22:43:37;1019.618712363631;;;2.655078125;100
61740;BME280;47645;45.288;12.038;2023-12-07T22:53:38;1019.6399294517428;;;2.553125;100
61740;BME280;47645;45.288;12.038;2023-12-07T23:03:38;1019.6279106177277;;;2.5376953125;100
61740;BME280;47645;45.288;12.038;2023-12-07T23:13:39;1019.6411651134363;;;2.471484375;100
61740;BME280;47645;45.288;12.038;2023-12-07T23:23:39;1019.670932400251;;;2.45625;100
61740;BME280;47645;45.288;12.038;2023-12-07T23:33:40;1019.6560733478893;;;2.4052734375;100
61740;BME280;47645;45.288;12.038;2023-12-07T23:43:40;1019.3667725673326;;;2.3134765625;100
61740;BME280;47645;45.288;12.038;2023-12-07T23:53:40;1019.4340410198587;;;2.2115234375;100
